Savannakhet, Savannakhet Airport (VLSK)

NameSavannakhet Airport
CitySavannakhet
CountryLao People's Democratic Republic
ICAOVLSK
IATAZVK
Altitude155 m
CoordinatesGoogle Map
Live Air TrafficLiveATC.net
METARVLSK 201000Z 18002KT 8000 SCT020 SCT100 39/17 Q1003 NOSIG
2019-04-20 10:00:00 Wind: South (180°) 1.03 m/s - Visibility: 8000 m - Temperature: 39 °C - Dew point: 17 °C - Humidity: 27.4% - Pressure: 1003 hPa

Sorry, no flights used the airport in this database.